Airfield :
LOGIN :

Register | Disclaimer

   EN    FR    IT 

 










Legend :    VFR   Marginal VFR   IFR   Intensive IFR   Very Intensive IFR
Visi :
Ceiling :
>= 8 km
>= 3000ft
5 to 8 km
1000 to 3000 ft
1500m to 5 km
500 to 1000 ft
800 to 1500m
200 to 500 ft
< 800m
< 200 ft
Symbols :   Thunderstorms  Fog  Heavy snow  Heavy precipitations  Wind > 20 kt
SIGMETs :     Misc.  Thunderstorms  Icing  Turbulence  Mountain Waves  Volcanic Ashes







- Airport Elevation : 72 ft
- IATA code : UDE


EHVK - Volkel Airbase

CURRENT METAR :
  • 190225Z AUTO 27005KT 9999 FEW030 SCT071 OVC077 05/02 Q1015 BLU

EXPIRED METARs :
  • 190155Z AUTO 27006KT 250V310 9999 -DZ FEW035 SCT046 OVC050 05/03 Q1015 BLU
  • 190125Z AUTO 26005KT 240V300 9999 SCT056 OVC074 05/03 Q1015 BLU
  • 190055Z AUTO VRB02KT 9999 FEW043 BKN071 BKN077 05/04 Q1015 BLU
  • 190025Z AUTO VRB02KT 9999 FEW033 OVC054 06/04 Q1015 BLU
  • 182356Z AUTO 29003KT 250V350 9999 FEW016 SCT035 BKN043 06/04 Q1015 BLU
  • 182355Z AUTO 30003KT 280V350 9999 FEW013 SCT016 BKN031 06/04 Q1015 WHT

TAF TAF EHVK
Valid from the 19 at 02:00 until the 19 at 14:00 UTC


190146Z 1902/1914 28006KT 9999 SCT030 BKN050
TEMPO 1910/1916 20015G25KT FEW018 SCT020CB
No reported NOTAMs for that airfield.



MET'MAP, your aeronautical weather chart ! - Copyright ORBIFLY December 2007 - Disclaimer

ORBIFLY MET'MAP TEAM :

Programming & Development : Alexandra Zaïnal
Concept & Development : Baudouin d'Aumeries
Co-Development & Prog : Marc-Olivier Méhu
Technical & hardware support : Manuel Goepfert

Contact : metmap@orbifly.com




SOURCES & CREDITS :

   NOAA